Brookton, Maine
Current Conditions -  °F | °C
As of 3:14 PM on Monday 24 Nov 2014 (Local Time) from KHUL Reporting Station
Light Rain Light Rain  
Wind Chill: 53°   Ceiling: 900
Heat Index: 53°   Visibility: 2.5mi
Dew Point: 51°   Wind: 12mph
Humidity: 93%   Direction: 160°SSE
Pressure: 29.57"   Gusts: 23mph
Location:  45.53°N, 67.76°W
Report Text: KHUL 242014Z AUTO 16010G20KT 2 1/2SM -RA BR BKN009 OVC014 12/11 A2957 RMK AO2 P0001 T01170106
Loading
Personal Weather Stations






























Interactive Weather Map New forecast layout! Learn more

10-Day Weather Forecast

Advertisements
Track Severe Weather on mobile